Harrisburg, South Dakota
Current Conditions -  °F | °C
As of 9:56 AM on Saturday 20 Dec 2014 (Local Time) from KFSD Reporting Station
Haze Haze  
Wind Chill: 24°   Ceiling: 700
Heat Index: 32°   Visibility: 6mi
Dew Point: 29°   Wind: 9mph
Humidity: 88%   Direction: 180°S
Pressure: 30.07"   Gusts: NA
Location:  43.43°N, 96.7°W
Report Text: KFSD 201556Z 18008KT 6SM BR OVC007 00/M02 A3007 RMK AO2 SLP199 T00001017
Loading
Personal Weather Stations






























Interactive Weather Map New forecast layout! Learn more

10-Day Weather Forecast

Advertisements
Track Severe Weather on mobile